sensor_id;sensor_type;location;lat;lon;timestamp;P1;durP1;ratioP1;P2;durP2;ratioP2
7487;SDS011;3785;52.260;4.728;2022-09-30T00:02:42;4.35;;;2.95;;
7487;SDS011;3785;52.260;4.728;2022-09-30T00:06:03;4.28;;;2.90;;
7487;SDS011;3785;52.260;4.728;2022-09-30T00:09:25;4.25;;;2.53;;
7487;SDS011;3785;52.260;4.728;2022-09-30T00:12:45;4.20;;;2.88;;
7487;SDS011;3785;52.260;4.728;2022-09-30T00:16:07;4.20;;;2.88;;
7487;SDS011;3785;52.260;4.728;2022-09-30T00:19:29;3.53;;;2.40;;
7487;SDS011;3785;52.260;4.728;2022-09-30T00:22:49;3.75;;;2.60;;
7487;SDS011;3785;52.260;4.728;2022-09-30T00:26:11;4.10;;;2.40;;
7487;SDS011;3785;52.260;4.728;2022-09-30T00:29:33;4.03;;;2.72;;
7487;SDS011;3785;52.260;4.728;2022-09-30T00:32:54;3.15;;;2.17;;
7487;SDS011;3785;52.260;4.728;2022-09-30T00:36:14;4.85;;;2.70;;
7487;SDS011;3785;52.260;4.728;2022-09-30T00:39:35;4.22;;;2.67;;
7487;SDS011;3785;52.260;4.728;2022-09-30T00:42:56;2.60;;;2.05;;
7487;SDS011;3785;52.260;4.728;2022-09-30T00:49:58;4.45;;;2.40;;
7487;SDS011;3785;52.260;4.728;2022-09-30T00:53:42;3.72;;;2.25;;
7487;SDS011;3785;52.260;4.728;2022-09-30T00:57:13;3.92;;;2.72;;
7487;SDS011;3785;52.260;4.728;2022-09-30T01:00:34;3.20;;;2.50;;
7487;SDS011;3785;52.260;4.728;2022-09-30T01:04:02;4.20;;;2.65;;
7487;SDS011;3785;52.260;4.728;2022-09-30T01:07:25;3.53;;;2.42;;
7487;SDS011;3785;52.260;4.728;2022-09-30T01:10:47;4.10;;;2.80;;
7487;SDS011;3785;52.260;4.728;2022-09-30T01:14:09;4.78;;;2.50;;
7487;SDS011;3785;52.260;4.728;2022-09-30T01:39:50;4.35;;;2.90;;
7487;SDS011;3785;52.260;4.728;2022-09-30T01:47:01;3.10;;;2.55;;
7487;SDS011;3785;52.260;4.728;2022-09-30T01:51:06;4.45;;;3.10;;
7487;SDS011;3785;52.260;4.728;2022-09-30T01:54:38;4.57;;;3.17;;
7487;SDS011;3785;52.260;4.728;2022-09-30T01:58:15;3.88;;;2.88;;
7487;SDS011;3785;52.260;4.728;2022-09-30T02:01:47;3.78;;;2.88;;
7487;SDS011;3785;52.260;4.728;2022-09-30T02:05:13;3.83;;;2.72;;
7487;SDS011;3785;52.260;4.728;2022-09-30T02:08:57;5.28;;;3.28;;
7487;SDS011;3785;52.260;4.728;2022-09-30T02:12:22;4.93;;;3.03;;
7487;SDS011;3785;52.260;4.728;2022-09-30T02:15:51;4.00;;;2.90;;
7487;SDS011;3785;52.260;4.728;2022-09-30T02:19:18;4.10;;;2.80;;
7487;SDS011;3785;52.260;4.728;2022-09-30T02:22:47;4.20;;;2.75;;
7487;SDS011;3785;52.260;4.728;2022-09-30T02:26:17;4.40;;;2.97;;
7487;SDS011;3785;52.260;4.728;2022-09-30T02:29:42;5.13;;;3.10;;
7487;SDS011;3785;52.260;4.728;2022-09-30T02:33:06;6.45;;;3.45;;
7487;SDS011;3785;52.260;4.728;2022-09-30T02:36:32;4.88;;;3.15;;
7487;SDS011;3785;52.260;4.728;2022-09-30T02:40:00;4.07;;;2.80;;
7487;SDS011;3785;52.260;4.728;2022-09-30T02:43:28;5.45;;;3.10;;
7487;SDS011;3785;52.260;4.728;2022-09-30T02:46:55;6.10;;;3.53;;
7487;SDS011;3785;52.260;4.728;2022-09-30T02:50:34;4.05;;;2.67;;
7487;SDS011;3785;52.260;4.728;2022-09-30T02:54:14;3.83;;;2.92;;
7487;SDS011;3785;52.260;4.728;2022-09-30T03:01:30;4.82;;;3.17;;
7487;SDS011;3785;52.260;4.728;2022-09-30T03:04:50;5.00;;;3.20;;
7487;SDS011;3785;52.260;4.728;2022-09-30T03:08:11;3.92;;;3.05;;
7487;SDS011;3785;52.260;4.728;2022-09-30T03:11:31;4.60;;;3.17;;
7487;SDS011;3785;52.260;4.728;2022-09-30T03:15:05;4.75;;;3.25;;
7487;SDS011;3785;52.260;4.728;2022-09-30T03:18:47;4.50;;;3.25;;
7487;SDS011;3785;52.260;4.728;2022-09-30T03:26:08;4.53;;;3.38;;
7487;SDS011;3785;52.260;4.728;2022-09-30T03:40:51;5.10;;;3.40;;
7487;SDS011;3785;52.260;4.728;2022-09-30T03:44:33;4.93;;;3.40;;
7487;SDS011;3785;52.260;4.728;2022-09-30T03:47:58;5.68;;;3.78;;
7487;SDS011;3785;52.260;4.728;2022-09-30T03:51:22;5.00;;;3.40;;
7487;SDS011;3785;52.260;4.728;2022-09-30T03:58:09;5.10;;;3.33;;
7487;SDS011;3785;52.260;4.728;2022-09-30T04:01:30;6.18;;;4.20;;
7487;SDS011;3785;52.260;4.728;2022-09-30T04:04:50;5.75;;;3.90;;
7487;SDS011;3785;52.260;4.728;2022-09-30T04:08:11;5.55;;;3.90;;
7487;SDS011;3785;52.260;4.728;2022-09-30T04:11:32;6.28;;;4.28;;
7487;SDS011;3785;52.260;4.728;2022-09-30T04:14:52;6.47;;;3.85;;
7487;SDS011;3785;52.260;4.728;2022-09-30T04:18:13;5.03;;;4.00;;
7487;SDS011;3785;52.260;4.728;2022-09-30T04:21:33;5.20;;;3.60;;
7487;SDS011;3785;52.260;4.728;2022-09-30T04:24:54;6.10;;;3.95;;
7487;SDS011;3785;52.260;4.728;2022-09-30T04:28:14;5.47;;;3.72;;
7487;SDS011;3785;52.260;4.728;2022-09-30T04:31:35;5.65;;;3.80;;
7487;SDS011;3785;52.260;4.728;2022-09-30T04:34:55;6.13;;;3.83;;
7487;SDS011;3785;52.260;4.728;2022-09-30T04:38:16;5.03;;;3.90;;
7487;SDS011;3785;52.260;4.728;2022-09-30T04:41:37;5.25;;;3.83;;
7487;SDS011;3785;52.260;4.728;2022-09-30T04:44:58;7.32;;;3.88;;
7487;SDS011;3785;52.260;4.728;2022-09-30T04:48:19;4.90;;;3.35;;
7487;SDS011;3785;52.260;4.728;2022-09-30T04:51:41;5.50;;;3.90;;
7487;SDS011;3785;52.260;4.728;2022-09-30T04:55:05;4.47;;;3.22;;
7487;SDS011;3785;52.260;4.728;2022-09-30T04:58:27;7.05;;;4.18;;
7487;SDS011;3785;52.260;4.728;2022-09-30T05:01:48;4.70;;;3.45;;
7487;SDS011;3785;52.260;4.728;2022-09-30T05:05:08;6.07;;;3.50;;
7487;SDS011;3785;52.260;4.728;2022-09-30T05:08:29;6.15;;;3.97;;
7487;SDS011;3785;52.260;4.728;2022-09-30T05:11:52;7.07;;;3.40;;
7487;SDS011;3785;52.260;4.728;2022-09-30T05:15:12;5.38;;;3.42;;
7487;SDS011;3785;52.260;4.728;2022-09-30T05:18:33;5.65;;;3.63;;
7487;SDS011;3785;52.260;4.728;2022-09-30T05:21:53;5.00;;;3.53;;
7487;SDS011;3785;52.260;4.728;2022-09-30T05:25:14;5.13;;;3.83;;
7487;SDS011;3785;52.260;4.728;2022-09-30T05:28:35;6.60;;;3.58;;
7487;SDS011;3785;52.260;4.728;2022-09-30T05:32:23;5.30;;;3.22;;
7487;SDS011;3785;52.260;4.728;2022-09-30T05:35:51;5.70;;;3.67;;
7487;SDS011;3785;52.260;4.728;2022-09-30T05:39:12;6.30;;;3.55;;
7487;SDS011;3785;52.260;4.728;2022-09-30T05:42:33;4.97;;;3.63;;
7487;SDS011;3785;52.260;4.728;2022-09-30T05:45:55;5.22;;;3.22;;
7487;SDS011;3785;52.260;4.728;2022-09-30T05:49:16;5.45;;;3.75;;
7487;SDS011;3785;52.260;4.728;2022-09-30T05:52:36;6.53;;;4.07;;
7487;SDS011;3785;52.260;4.728;2022-09-30T05:55:57;5.10;;;3.63;;
7487;SDS011;3785;52.260;4.728;2022-09-30T05:59:18;6.40;;;3.58;;
7487;SDS011;3785;52.260;4.728;2022-09-30T06:02:39;7.53;;;4.13;;
7487;SDS011;3785;52.260;4.728;2022-09-30T06:06:00;5.55;;;3.40;;
7487;SDS011;3785;52.260;4.728;2022-09-30T06:09:20;5.20;;;3.60;;
7487;SDS011;3785;52.260;4.728;2022-09-30T06:12:41;6.30;;;3.85;;
7487;SDS011;3785;52.260;4.728;2022-09-30T06:16:02;5.88;;;4.07;;
7487;SDS011;3785;52.260;4.728;2022-09-30T06:19:24;6.00;;;4.30;;
7487;SDS011;3785;52.260;4.728;2022-09-30T06:22:45;6.03;;;4.13;;
7487;SDS011;3785;52.260;4.728;2022-09-30T06:26:06;7.10;;;4.78;;
7487;SDS011;3785;52.260;4.728;2022-09-30T06:29:27;5.85;;;4.47;;
7487;SDS011;3785;52.260;4.728;2022-09-30T06:32:48;5.72;;;4.13;;
7487;SDS011;3785;52.260;4.728;2022-09-30T06:36:09;6.40;;;4.45;;
7487;SDS011;3785;52.260;4.728;2022-09-30T06:39:29;6.13;;;3.70;;
7487;SDS011;3785;52.260;4.728;2022-09-30T06:42:50;4.05;;;2.78;;
7487;SDS011;3785;52.260;4.728;2022-09-30T06:46:11;3.55;;;2.40;;
7487;SDS011;3785;52.260;4.728;2022-09-30T06:49:32;4.43;;;2.60;;
7487;SDS011;3785;52.260;4.728;2022-09-30T06:52:59;4.65;;;2.50;;
7487;SDS011;3785;52.260;4.728;2022-09-30T06:56:21;3.28;;;2.53;;
7487;SDS011;3785;52.260;4.728;2022-09-30T06:59:41;3.55;;;2.47;;
7487;SDS011;3785;52.260;4.728;2022-09-30T07:03:03;3.72;;;2.70;;
7487;SDS011;3785;52.260;4.728;2022-09-30T07:06:28;4.13;;;2.88;;
7487;SDS011;3785;52.260;4.728;2022-09-30T07:09:49;3.42;;;2.55;;
7487;SDS011;3785;52.260;4.728;2022-09-30T07:13:10;4.75;;;2.90;;
7487;SDS011;3785;52.260;4.728;2022-09-30T07:16:31;4.90;;;2.95;;
7487;SDS011;3785;52.260;4.728;2022-09-30T07:19:53;4.00;;;2.70;;
7487;SDS011;3785;52.260;4.728;2022-09-30T07:23:14;4.35;;;2.80;;
7487;SDS011;3785;52.260;4.728;2022-09-30T07:26:34;3.10;;;2.30;;
7487;SDS011;3785;52.260;4.728;2022-09-30T07:29:55;5.03;;;2.88;;
7487;SDS011;3785;52.260;4.728;2022-09-30T07:33:16;3.92;;;2.92;;
7487;SDS011;3785;52.260;4.728;2022-09-30T07:36:37;4.63;;;2.85;;
7487;SDS011;3785;52.260;4.728;2022-09-30T07:39:58;5.68;;;2.92;;
7487;SDS011;3785;52.260;4.728;2022-09-30T07:43:19;3.92;;;2.67;;
7487;SDS011;3785;52.260;4.728;2022-09-30T07:46:40;3.42;;;2.47;;
7487;SDS011;3785;52.260;4.728;2022-09-30T07:50:01;5.28;;;2.88;;
7487;SDS011;3785;52.260;4.728;2022-09-30T07:53:23;4.30;;;2.65;;
7487;SDS011;3785;52.260;4.728;2022-09-30T07:56:44;4.45;;;3.00;;
7487;SDS011;3785;52.260;4.728;2022-09-30T08:00:05;5.50;;;3.35;;
7487;SDS011;3785;52.260;4.728;2022-09-30T08:03:27;7.70;;;3.50;;
7487;SDS011;3785;52.260;4.728;2022-09-30T08:06:48;7.15;;;4.20;;
7487;SDS011;3785;52.260;4.728;2022-09-30T08:10:19;7.97;;;4.22;;
7487;SDS011;3785;52.260;4.728;2022-09-30T08:13:40;6.70;;;4.43;;
7487;SDS011;3785;52.260;4.728;2022-09-30T08:17:00;7.25;;;4.65;;
7487;SDS011;3785;52.260;4.728;2022-09-30T08:20:21;8.35;;;5.18;;
7487;SDS011;3785;52.260;4.728;2022-09-30T08:23:42;6.57;;;4.75;;
7487;SDS011;3785;52.260;4.728;2022-09-30T08:27:03;9.13;;;5.45;;
7487;SDS011;3785;52.260;4.728;2022-09-30T08:30:24;11.07;;;5.40;;
7487;SDS011;3785;52.260;4.728;2022-09-30T08:33:44;10.38;;;5.85;;
7487;SDS011;3785;52.260;4.728;2022-09-30T08:37:05;8.13;;;5.13;;
7487;SDS011;3785;52.260;4.728;2022-09-30T08:40:27;9.48;;;6.05;;
7487;SDS011;3785;52.260;4.728;2022-09-30T08:54:30;11.35;;;6.82;;
7487;SDS011;3785;52.260;4.728;2022-09-30T08:57:52;10.57;;;6.68;;
7487;SDS011;3785;52.260;4.728;2022-09-30T09:01:19;10.50;;;6.10;;
7487;SDS011;3785;52.260;4.728;2022-09-30T09:04:51;9.13;;;6.07;;
7487;SDS011;3785;52.260;4.728;2022-09-30T09:19:25;9.13;;;5.95;;
7487;SDS011;3785;52.260;4.728;2022-09-30T09:22:59;12.65;;;6.40;;
7487;SDS011;3785;52.260;4.728;2022-09-30T09:26:22;10.27;;;6.60;;
7487;SDS011;3785;52.260;4.728;2022-09-30T09:33:20;10.05;;;6.32;;
7487;SDS011;3785;52.260;4.728;2022-09-30T09:36:52;10.68;;;6.65;;
7487;SDS011;3785;52.260;4.728;2022-09-30T09:40:33;8.93;;;5.95;;
7487;SDS011;3785;52.260;4.728;2022-09-30T09:47:58;12.88;;;7.20;;
7487;SDS011;3785;52.260;4.728;2022-09-30T09:51:27;8.63;;;5.93;;
7487;SDS011;3785;52.260;4.728;2022-09-30T09:54:53;4.00;;;2.67;;
7487;SDS011;3785;52.260;4.728;2022-09-30T09:58:15;2.85;;;1.80;;
7487;SDS011;3785;52.260;4.728;2022-09-30T10:01:37;4.05;;;1.63;;
7487;SDS011;3785;52.260;4.728;2022-09-30T10:05:00;2.20;;;1.60;;
7487;SDS011;3785;52.260;4.728;2022-09-30T10:08:22;2.97;;;1.38;;
7487;SDS011;3785;52.260;4.728;2022-09-30T10:11:43;2.50;;;1.10;;
7487;SDS011;3785;52.260;4.728;2022-09-30T10:15:10;1.88;;;1.10;;
7487;SDS011;3785;52.260;4.728;2022-09-30T10:18:39;1.58;;;1.05;;
7487;SDS011;3785;52.260;4.728;2022-09-30T10:25:27;3.00;;;0.98;;
7487;SDS011;3785;52.260;4.728;2022-09-30T10:32:15;1.02;;;0.60;;
7487;SDS011;3785;52.260;4.728;2022-09-30T10:35:46;1.45;;;0.80;;
7487;SDS011;3785;52.260;4.728;2022-09-30T10:42:55;1.08;;;0.75;;
7487;SDS011;3785;52.260;4.728;2022-09-30T10:46:24;1.88;;;0.40;;
7487;SDS011;3785;52.260;4.728;2022-09-30T10:50:07;0.40;;;0.30;;
7487;SDS011;3785;52.260;4.728;2022-09-30T10:53:32;0.40;;;0.30;;
7487;SDS011;3785;52.260;4.728;2022-09-30T10:56:53;0.50;;;0.40;;
7487;SDS011;3785;52.260;4.728;2022-09-30T11:00:15;0.80;;;0.50;;
7487;SDS011;3785;52.260;4.728;2022-09-30T11:03:40;0.82;;;0.32;;
7487;SDS011;3785;52.260;4.728;2022-09-30T11:07:20;1.05;;;0.45;;
7487;SDS011;3785;52.260;4.728;2022-09-30T11:10:56;0.47;;;0.30;;
7487;SDS011;3785;52.260;4.728;2022-09-30T11:18:14;0.50;;;0.30;;
7487;SDS011;3785;52.260;4.728;2022-09-30T11:21:59;0.63;;;0.35;;
7487;SDS011;3785;52.260;4.728;2022-09-30T11:25:42;0.60;;;0.38;;
7487;SDS011;3785;52.260;4.728;2022-09-30T11:29:26;0.30;;;0.28;;
7487;SDS011;3785;52.260;4.728;2022-09-30T11:33:13;1.35;;;0.38;;
7487;SDS011;3785;52.260;4.728;2022-09-30T11:37:01;0.40;;;0.40;;
7487;SDS011;3785;52.260;4.728;2022-09-30T11:44:13;0.60;;;0.40;;
7487;SDS011;3785;52.260;4.728;2022-09-30T11:52:13;0.82;;;0.50;;
7487;SDS011;3785;52.260;4.728;2022-09-30T11:58:53;1.17;;;0.68;;
7487;SDS011;3785;52.260;4.728;2022-09-30T12:05:57;2.15;;;1.25;;
7487;SDS011;3785;52.260;4.728;2022-09-30T12:09:27;1.63;;;1.08;;
7487;SDS011;3785;52.260;4.728;2022-09-30T12:13:00;2.40;;;1.10;;
7487;SDS011;3785;52.260;4.728;2022-09-30T12:16:24;1.13;;;0.75;;
7487;SDS011;3785;52.260;4.728;2022-09-30T12:19:48;1.98;;;0.88;;
7487;SDS011;3785;52.260;4.728;2022-09-30T12:23:15;2.13;;;1.02;;
7487;SDS011;3785;52.260;4.728;2022-09-30T12:26:40;1.92;;;1.00;;
7487;SDS011;3785;52.260;4.728;2022-09-30T12:30:05;2.20;;;1.20;;
7487;SDS011;3785;52.260;4.728;2022-09-30T12:33:46;1.75;;;1.02;;
7487;SDS011;3785;52.260;4.728;2022-09-30T12:37:31;2.40;;;1.13;;
7487;SDS011;3785;52.260;4.728;2022-09-30T12:48:05;2.42;;;1.20;;
7487;SDS011;3785;52.260;4.728;2022-09-30T12:51:30;2.05;;;1.10;;
7487;SDS011;3785;52.260;4.728;2022-09-30T12:54:54;1.90;;;1.00;;
7487;SDS011;3785;52.260;4.728;2022-09-30T12:58:25;2.58;;;1.10;;
7487;SDS011;3785;52.260;4.728;2022-09-30T13:01:50;1.05;;;0.70;;
7487;SDS011;3785;52.260;4.728;2022-09-30T13:16:01;1.70;;;0.80;;
7487;SDS011;3785;52.260;4.728;2022-09-30T13:19:30;3.70;;;1.30;;
7487;SDS011;3785;52.260;4.728;2022-09-30T13:22:59;1.60;;;1.13;;
7487;SDS011;3785;52.260;4.728;2022-09-30T13:29:46;2.15;;;1.25;;
7487;SDS011;3785;52.260;4.728;2022-09-30T13:40:13;2.55;;;1.08;;
7487;SDS011;3785;52.260;4.728;2022-09-30T13:47:21;1.25;;;0.85;;
7487;SDS011;3785;52.260;4.728;2022-09-30T13:50:57;1.63;;;1.00;;
7487;SDS011;3785;52.260;4.728;2022-09-30T14:01:23;0.77;;;0.55;;
7487;SDS011;3785;52.260;4.728;2022-09-30T14:05:09;1.05;;;0.50;;
7487;SDS011;3785;52.260;4.728;2022-09-30T14:09:15;0.50;;;0.40;;
7487;SDS011;3785;52.260;4.728;2022-09-30T14:19:34;1.00;;;0.60;;
7487;SDS011;3785;52.260;4.728;2022-09-30T14:23:01;0.60;;;0.40;;
7487;SDS011;3785;52.260;4.728;2022-09-30T14:30:08;1.20;;;0.40;;
7487;SDS011;3785;52.260;4.728;2022-09-30T14:33:35;0.82;;;0.60;;
7487;SDS011;3785;52.260;4.728;2022-09-30T14:40:53;1.65;;;0.80;;
7487;SDS011;3785;52.260;4.728;2022-09-30T14:44:15;1.17;;;0.80;;
7487;SDS011;3785;52.260;4.728;2022-09-30T14:47:44;1.45;;;0.80;;
7487;SDS011;3785;52.260;4.728;2022-09-30T14:51:12;1.13;;;0.80;;
7487;SDS011;3785;52.260;4.728;2022-09-30T14:54:34;1.75;;;0.90;;
7487;SDS011;3785;52.260;4.728;2022-09-30T15:01:37;1.90;;;0.93;;
7487;SDS011;3785;52.260;4.728;2022-09-30T15:04:58;2.00;;;1.10;;
7487;SDS011;3785;52.260;4.728;2022-09-30T15:08:20;3.25;;;1.30;;
7487;SDS011;3785;52.260;4.728;2022-09-30T15:11:41;2.35;;;1.20;;
7487;SDS011;3785;52.260;4.728;2022-09-30T15:15:20;1.88;;;1.23;;
7487;SDS011;3785;52.260;4.728;2022-09-30T15:18:55;2.45;;;1.55;;
7487;SDS011;3785;52.260;4.728;2022-09-30T15:22:16;4.25;;;1.42;;
7487;SDS011;3785;52.260;4.728;2022-09-30T15:25:37;2.35;;;1.33;;
7487;SDS011;3785;52.260;4.728;2022-09-30T15:28:59;2.25;;;1.40;;
7487;SDS011;3785;52.260;4.728;2022-09-30T15:32:23;2.42;;;1.42;;
7487;SDS011;3785;52.260;4.728;2022-09-30T15:35:46;2.88;;;1.70;;
7487;SDS011;3785;52.260;4.728;2022-09-30T15:39:16;2.83;;;1.63;;
7487;SDS011;3785;52.260;4.728;2022-09-30T15:43:04;3.00;;;1.90;;
7487;SDS011;3785;52.260;4.728;2022-09-30T15:49:49;2.90;;;1.98;;
7487;SDS011;3785;52.260;4.728;2022-09-30T15:53:17;3.08;;;2.08;;
7487;SDS011;3785;52.260;4.728;2022-09-30T15:56:42;3.55;;;1.95;;
7487;SDS011;3785;52.260;4.728;2022-09-30T16:00:04;2.80;;;2.25;;
7487;SDS011;3785;52.260;4.728;2022-09-30T16:03:27;2.63;;;2.08;;
7487;SDS011;3785;52.260;4.728;2022-09-30T16:06:58;3.30;;;2.20;;
7487;SDS011;3785;52.260;4.728;2022-09-30T16:10:28;3.00;;;2.28;;
7487;SDS011;3785;52.260;4.728;2022-09-30T16:13:49;3.75;;;2.45;;
7487;SDS011;3785;52.260;4.728;2022-09-30T16:20:37;3.25;;;2.17;;
7487;SDS011;3785;52.260;4.728;2022-09-30T16:23:59;3.22;;;1.83;;
7487;SDS011;3785;52.260;4.728;2022-09-30T16:27:21;2.78;;;2.00;;
7487;SDS011;3785;52.260;4.728;2022-09-30T16:30:46;2.72;;;1.80;;
7487;SDS011;3785;52.260;4.728;2022-09-30T16:37:59;2.97;;;2.05;;
7487;SDS011;3785;52.260;4.728;2022-09-30T16:41:21;2.80;;;2.08;;
7487;SDS011;3785;52.260;4.728;2022-09-30T16:44:41;3.08;;;1.70;;
7487;SDS011;3785;52.260;4.728;2022-09-30T16:48:15;2.20;;;1.55;;
7487;SDS011;3785;52.260;4.728;2022-09-30T16:51:36;2.17;;;1.77;;
7487;SDS011;3785;52.260;4.728;2022-09-30T16:54:57;3.17;;;2.13;;
7487;SDS011;3785;52.260;4.728;2022-09-30T16:58:17;2.92;;;2.03;;
7487;SDS011;3785;52.260;4.728;2022-09-30T17:01:38;3.33;;;1.75;;
7487;SDS011;3785;52.260;4.728;2022-09-30T17:04:59;3.58;;;2.47;;
7487;SDS011;3785;52.260;4.728;2022-09-30T17:08:20;2.75;;;1.77;;
7487;SDS011;3785;52.260;4.728;2022-09-30T17:11:42;3.20;;;2.17;;
7487;SDS011;3785;52.260;4.728;2022-09-30T17:15:03;3.50;;;1.92;;
7487;SDS011;3785;52.260;4.728;2022-09-30T17:18:24;2.97;;;2.10;;
7487;SDS011;3785;52.260;4.728;2022-09-30T17:21:44;3.40;;;1.58;;
7487;SDS011;3785;52.260;4.728;2022-09-30T17:25:05;2.55;;;1.67;;
7487;SDS011;3785;52.260;4.728;2022-09-30T17:28:26;2.83;;;1.58;;
7487;SDS011;3785;52.260;4.728;2022-09-30T17:31:47;3.78;;;1.50;;
7487;SDS011;3785;52.260;4.728;2022-09-30T17:35:07;2.38;;;1.70;;
7487;SDS011;3785;52.260;4.728;2022-09-30T17:38:29;3.33;;;1.98;;
7487;SDS011;3785;52.260;4.728;2022-09-30T17:41:49;2.63;;;1.58;;
7487;SDS011;3785;52.260;4.728;2022-09-30T17:45:28;2.72;;;1.83;;
7487;SDS011;3785;52.260;4.728;2022-09-30T17:48:53;3.75;;;1.90;;
7487;SDS011;3785;52.260;4.728;2022-09-30T17:52:14;3.13;;;1.70;;
7487;SDS011;3785;52.260;4.728;2022-09-30T17:55:36;2.78;;;1.80;;
7487;SDS011;3785;52.260;4.728;2022-09-30T17:58:56;2.88;;;1.60;;
7487;SDS011;3785;52.260;4.728;2022-09-30T18:02:19;4.07;;;1.77;;
7487;SDS011;3785;52.260;4.728;2022-09-30T18:05:40;2.97;;;1.83;;
7487;SDS011;3785;52.260;4.728;2022-09-30T18:09:01;2.58;;;1.70;;
7487;SDS011;3785;52.260;4.728;2022-09-30T18:12:22;2.47;;;1.55;;
7487;SDS011;3785;52.260;4.728;2022-09-30T18:15:42;2.60;;;1.83;;
7487;SDS011;3785;52.260;4.728;2022-09-30T18:19:04;2.90;;;1.90;;
7487;SDS011;3785;52.260;4.728;2022-09-30T18:22:25;3.05;;;1.50;;
7487;SDS011;3785;52.260;4.728;2022-09-30T18:25:46;2.00;;;1.63;;
7487;SDS011;3785;52.260;4.728;2022-09-30T18:29:08;2.08;;;1.63;;
7487;SDS011;3785;52.260;4.728;2022-09-30T18:32:29;2.88;;;1.60;;
7487;SDS011;3785;52.260;4.728;2022-09-30T18:35:50;2.65;;;1.58;;
7487;SDS011;3785;52.260;4.728;2022-09-30T18:39:10;2.45;;;1.80;;
7487;SDS011;3785;52.260;4.728;2022-09-30T18:42:31;1.77;;;1.40;;
7487;SDS011;3785;52.260;4.728;2022-09-30T18:45:52;2.55;;;1.60;;
7487;SDS011;3785;52.260;4.728;2022-09-30T18:49:15;2.47;;;1.50;;
7487;SDS011;3785;52.260;4.728;2022-09-30T18:52:35;3.60;;;1.27;;
7487;SDS011;3785;52.260;4.728;2022-09-30T18:55:59;2.53;;;1.70;;
7487;SDS011;3785;52.260;4.728;2022-09-30T18:59:21;2.92;;;1.67;;
7487;SDS011;3785;52.260;4.728;2022-09-30T19:02:42;2.88;;;1.30;;
7487;SDS011;3785;52.260;4.728;2022-09-30T19:06:08;1.77;;;1.20;;
7487;SDS011;3785;52.260;4.728;2022-09-30T19:09:29;2.20;;;1.15;;
7487;SDS011;3785;52.260;4.728;2022-09-30T19:12:50;2.15;;;1.38;;
7487;SDS011;3785;52.260;4.728;2022-09-30T19:16:10;2.35;;;1.42;;
7487;SDS011;3785;52.260;4.728;2022-09-30T19:19:33;1.45;;;1.20;;
7487;SDS011;3785;52.260;4.728;2022-09-30T19:22:57;1.60;;;1.20;;
7487;SDS011;3785;52.260;4.728;2022-09-30T19:26:18;2.20;;;1.25;;
7487;SDS011;3785;52.260;4.728;2022-09-30T19:29:39;1.83;;;1.25;;
7487;SDS011;3785;52.260;4.728;2022-09-30T19:32:59;4.20;;;1.15;;
7487;SDS011;3785;52.260;4.728;2022-09-30T19:36:20;2.53;;;1.42;;
7487;SDS011;3785;52.260;4.728;2022-09-30T19:39:40;2.67;;;1.27;;
7487;SDS011;3785;52.260;4.728;2022-09-30T19:43:01;2.67;;;1.45;;
7487;SDS011;3785;52.260;4.728;2022-09-30T19:46:21;2.17;;;1.10;;
7487;SDS011;3785;52.260;4.728;2022-09-30T19:49:43;3.00;;;1.30;;
7487;SDS011;3785;52.260;4.728;2022-09-30T19:53:04;2.28;;;1.40;;
7487;SDS011;3785;52.260;4.728;2022-09-30T19:56:25;2.47;;;1.30;;
7487;SDS011;3785;52.260;4.728;2022-09-30T19:59:46;2.05;;;1.30;;
7487;SDS011;3785;52.260;4.728;2022-09-30T20:03:07;1.90;;;1.30;;
7487;SDS011;3785;52.260;4.728;2022-09-30T20:06:27;3.00;;;1.40;;
7487;SDS011;3785;52.260;4.728;2022-09-30T20:09:48;2.20;;;1.30;;
7487;SDS011;3785;52.260;4.728;2022-09-30T20:13:08;2.00;;;1.27;;
7487;SDS011;3785;52.260;4.728;2022-09-30T20:16:30;1.65;;;1.10;;
7487;SDS011;3785;52.260;4.728;2022-09-30T20:19:51;1.70;;;1.10;;
7487;SDS011;3785;52.260;4.728;2022-09-30T20:23:30;2.25;;;1.30;;
7487;SDS011;3785;52.260;4.728;2022-09-30T20:26:55;2.67;;;1.55;;
7487;SDS011;3785;52.260;4.728;2022-09-30T20:30:15;2.33;;;1.00;;
7487;SDS011;3785;52.260;4.728;2022-09-30T20:33:36;1.30;;;0.85;;
7487;SDS011;3785;52.260;4.728;2022-09-30T20:36:58;2.45;;;1.25;;
7487;SDS011;3785;52.260;4.728;2022-09-30T20:40:19;1.73;;;1.13;;
7487;SDS011;3785;52.260;4.728;2022-09-30T20:43:39;1.88;;;0.90;;
7487;SDS011;3785;52.260;4.728;2022-09-30T20:47:02;1.33;;;0.80;;
7487;SDS011;3785;52.260;4.728;2022-09-30T20:50:22;1.52;;;1.00;;
7487;SDS011;3785;52.260;4.728;2022-09-30T20:53:56;1.85;;;1.00;;
7487;SDS011;3785;52.260;4.728;2022-09-30T20:57:17;1.42;;;0.80;;
7487;SDS011;3785;52.260;4.728;2022-09-30T21:00:38;1.40;;;0.90;;
7487;SDS011;3785;52.260;4.728;2022-09-30T21:04:00;1.75;;;1.17;;
7487;SDS011;3785;52.260;4.728;2022-09-30T21:07:21;1.70;;;1.10;;
7487;SDS011;3785;52.260;4.728;2022-09-30T21:10:41;2.10;;;0.95;;
7487;SDS011;3785;52.260;4.728;2022-09-30T21:14:02;0.95;;;0.73;;
7487;SDS011;3785;52.260;4.728;2022-09-30T21:17:22;1.52;;;1.08;;
7487;SDS011;3785;52.260;4.728;2022-09-30T21:20:43;1.67;;;1.00;;
7487;SDS011;3785;52.260;4.728;2022-09-30T21:24:04;4.72;;;1.10;;
7487;SDS011;3785;52.260;4.728;2022-09-30T21:27:24;1.73;;;1.15;;
7487;SDS011;3785;52.260;4.728;2022-09-30T21:30:45;1.85;;;1.13;;
7487;SDS011;3785;52.260;4.728;2022-09-30T21:34:05;2.08;;;1.30;;
7487;SDS011;3785;52.260;4.728;2022-09-30T21:37:26;2.72;;;1.20;;
7487;SDS011;3785;52.260;4.728;2022-09-30T21:40:46;2.85;;;1.40;;
7487;SDS011;3785;52.260;4.728;2022-09-30T21:44:07;2.15;;;1.38;;
7487;SDS011;3785;52.260;4.728;2022-09-30T21:47:28;2.42;;;1.48;;
7487;SDS011;3785;52.260;4.728;2022-09-30T21:50:48;2.00;;;1.23;;
7487;SDS011;3785;52.260;4.728;2022-09-30T21:54:09;3.60;;;1.13;;
7487;SDS011;3785;52.260;4.728;2022-09-30T21:57:30;2.60;;;1.00;;
7487;SDS011;3785;52.260;4.728;2022-09-30T22:00:51;2.47;;;1.30;;
7487;SDS011;3785;52.260;4.728;2022-09-30T22:04:15;2.75;;;1.45;;
7487;SDS011;3785;52.260;4.728;2022-09-30T22:07:38;1.88;;;1.23;;
7487;SDS011;3785;52.260;4.728;2022-09-30T22:10:58;3.38;;;1.30;;
7487;SDS011;3785;52.260;4.728;2022-09-30T22:14:19;1.40;;;0.90;;
7487;SDS011;3785;52.260;4.728;2022-09-30T22:17:40;2.00;;;1.25;;
7487;SDS011;3785;52.260;4.728;2022-09-30T22:21:07;2.17;;;1.42;;
7487;SDS011;3785;52.260;4.728;2022-09-30T22:24:29;2.58;;;1.50;;
7487;SDS011;3785;52.260;4.728;2022-09-30T22:27:50;2.85;;;1.52;;
7487;SDS011;3785;52.260;4.728;2022-09-30T22:31:15;2.60;;;1.45;;
7487;SDS011;3785;52.260;4.728;2022-09-30T22:34:38;2.42;;;1.50;;
7487;SDS011;3785;52.260;4.728;2022-09-30T22:38:17;2.78;;;1.67;;
7487;SDS011;3785;52.260;4.728;2022-09-30T22:41:37;1.80;;;1.25;;
7487;SDS011;3785;52.260;4.728;2022-09-30T22:44:58;1.90;;;1.30;;
7487;SDS011;3785;52.260;4.728;2022-09-30T22:48:20;2.63;;;1.50;;
7487;SDS011;3785;52.260;4.728;2022-09-30T22:51:40;2.45;;;1.58;;
7487;SDS011;3785;52.260;4.728;2022-09-30T22:55:01;2.25;;;1.30;;
7487;SDS011;3785;52.260;4.728;2022-09-30T22:58:21;2.08;;;1.35;;
7487;SDS011;3785;52.260;4.728;2022-09-30T23:01:45;2.63;;;1.45;;
7487;SDS011;3785;52.260;4.728;2022-09-30T23:05:07;2.80;;;1.60;;
7487;SDS011;3785;52.260;4.728;2022-09-30T23:08:31;2.20;;;1.45;;
7487;SDS011;3785;52.260;4.728;2022-09-30T23:11:53;2.78;;;1.50;;
7487;SDS011;3785;52.260;4.728;2022-09-30T23:15:15;3.60;;;1.58;;
7487;SDS011;3785;52.260;4.728;2022-09-30T23:18:36;2.22;;;1.45;;
7487;SDS011;3785;52.260;4.728;2022-09-30T23:21:58;2.78;;;1.58;;
7487;SDS011;3785;52.260;4.728;2022-09-30T23:25:18;2.13;;;1.45;;
7487;SDS011;3785;52.260;4.728;2022-09-30T23:28:39;3.47;;;1.30;;
7487;SDS011;3785;52.260;4.728;2022-09-30T23:32:00;2.17;;;1.40;;
7487;SDS011;3785;52.260;4.728;2022-09-30T23:35:21;2.40;;;1.42;;
7487;SDS011;3785;52.260;4.728;2022-09-30T23:38:41;3.25;;;1.60;;
7487;SDS011;3785;52.260;4.728;2022-09-30T23:42:02;2.20;;;1.58;;
7487;SDS011;3785;52.260;4.728;2022-09-30T23:45:23;2.70;;;1.70;;
7487;SDS011;3785;52.260;4.728;2022-09-30T23:48:43;2.20;;;1.65;;
7487;SDS011;3785;52.260;4.728;2022-09-30T23:52:05;1.90;;;1.50;;
7487;SDS011;3785;52.260;4.728;2022-09-30T23:55:27;2.85;;;1.70;;
7487;SDS011;3785;52.260;4.728;2022-09-30T23:58:48;3.50;;;2.13;;
